LUK weather

Cincinnati Municipal Airport Lunken Field
Cincinnati, Ohio, United States

Public forecast

Using degrees Fahrenheit for public forecast. Weather courtesy of forecast.io.

METAR (pilot weather report)

Retrieved 2018/01/18 07:53 UTC (20 minutes ago):

KLUK 180753Z AUTO 20007KT 9SM CLR M12/M14 A3045 RMK AO2 SLP319 T11221144

TAF (pilot weather forecast)

Retrieved 2018/01/18 06:24 UTC (2 hours ago):

TAF KLUK 180522Z 1806/1906 22006KT P6SM SCT150 FM181500 22012KT P6SM SKC FM182300 22005KT P6SM FEW250